aviador You're here:

KLTS Decoded Metar

ALTUS in OK, USA
Report Time2018-07-21 07:56:00
UTC Time2018-07-21 08:10:41
Flight Rules vfr VFR
WindCalm
Visibility9999 m
Phenomena:N/A
Clouds:N/A
Expected CloudBase > 5,200 ft AGL from Temp-Dew spread
CeilingNone
Temp25°C (ISA +13)
Dew Point12°C (44% RH)
QNH1013 hPa
Density Alt3,041 ft
Elevation1,378 ft
Report Wrong Elevation
Raw Report
KLTS 210756Z AUTO 00000KT 10SM CLR 25/12 A2990 RMK AO2 SLP104
T02470123 $=

Extra information for KLTS:More info

Metar Taf Metar & Taf Last 4 Metars F.Rules Stats Wind Profile Meteogram Temp Stats Airport Information Weather charts Add Link Nearby VenuesMetar ALERT Operation Metar Decoded Social comments

AIRNAV info for KLTS